createdAt,value
2019-06-27T00:00:13.157Z,17.73
2019-06-27T00:02:42.198Z,17.87
2019-06-27T00:05:11.428Z,19.33
2019-06-27T00:07:40.544Z,17.33
2019-06-27T00:10:09.919Z,16.83
2019-06-27T00:12:38.953Z,18.93
2019-06-27T00:15:08.074Z,18.73
2019-06-27T00:17:37.113Z,17.43
2019-06-27T00:20:06.184Z,16.90
2019-06-27T00:22:35.296Z,18.90
2019-06-27T00:25:04.578Z,16.63
2019-06-27T00:27:32.627Z,17.27
2019-06-27T00:30:01.719Z,16.87
2019-06-27T00:32:30.817Z,17.50
2019-06-27T00:34:59.815Z,18.23
2019-06-27T00:37:28.867Z,18.93
2019-06-27T00:40:01.545Z,20.13
2019-06-27T00:42:30.632Z,17.30
2019-06-27T00:44:59.675Z,18.13
2019-06-27T00:47:28.819Z,18.20
2019-06-27T00:49:57.866Z,18.30
2019-06-27T00:52:29.015Z,18.03
2019-06-27T00:54:58.054Z,17.60
2019-06-27T00:57:27.086Z,17.53
2019-06-27T00:59:56.174Z,17.83
2019-06-27T01:02:25.276Z,18.20
2019-06-27T01:04:54.319Z,17.77
2019-06-27T01:07:23.357Z,18.60
2019-06-27T01:09:52.416Z,18.67
2019-06-27T01:12:21.498Z,18.37
2019-06-27T01:14:50.527Z,20.10
2019-06-27T01:17:19.618Z,19.10
2019-06-27T01:19:48.991Z,18.03
2019-06-27T01:22:18.079Z,18.07
2019-06-27T01:24:47.144Z,18.70
2019-06-27T01:27:29.137Z,19.77
2019-06-27T01:29:46.993Z,18.83
2019-06-27T01:32:16.109Z,18.37
2019-06-27T01:34:45.167Z,18.77
2019-06-27T01:37:14.221Z,19.10
2019-06-27T01:39:43.345Z,19.57
2019-06-27T01:42:12.418Z,18.50
2019-06-27T01:44:55.174Z,19.87
2019-06-27T01:47:24.290Z,19.67
2019-06-27T01:49:53.313Z,19.37
2019-06-27T01:52:23.938Z,18.43
2019-06-27T01:54:53.016Z,17.63
2019-06-27T01:57:22.097Z,19.03
2019-06-27T01:59:51.147Z,19.23
2019-06-27T02:02:20.245Z,18.00
2019-06-27T02:04:49.295Z,18.60
2019-06-27T02:07:19.524Z,19.03
2019-06-27T02:09:48.605Z,19.27
2019-06-27T02:12:17.664Z,19.97
2019-06-27T02:14:46.742Z,20.03
2019-06-27T02:17:15.854Z,19.73
2019-06-27T02:19:44.910Z,19.40
2019-06-27T02:22:13.958Z,20.87
2019-06-27T02:24:43.166Z,21.27
2019-06-27T02:27:12.222Z,19.60
2019-06-27T02:29:41.248Z,19.40
2019-06-27T02:32:10.301Z,20.50
2019-06-27T02:34:39.380Z,20.63
2019-06-27T02:37:08.391Z,20.53
2019-06-27T02:39:37.458Z,20.07
2019-06-27T02:42:08.781Z,20.53
2019-06-27T02:44:37.881Z,20.77
2019-06-27T02:47:06.925Z,22.67
2019-06-27T02:49:36.027Z,21.60
2019-06-27T02:52:05.094Z,21.20
2019-06-27T02:54:34.148Z,20.00
2019-06-27T02:57:03.181Z,20.53
2019-06-27T02:59:32.279Z,20.07
2019-06-27T03:02:01.351Z,22.03
2019-06-27T03:04:30.394Z,19.37
2019-06-27T03:06:59.427Z,21.13
2019-06-27T03:09:28.483Z,20.40
2019-06-27T03:12:00.281Z,21.00
2019-06-27T03:14:28.433Z,21.60
2019-06-27T03:16:57.469Z,20.83
2019-06-27T03:19:26.553Z,20.43
2019-06-27T03:21:55.570Z,20.67
2019-06-27T03:24:24.689Z,20.43
2019-06-27T03:26:53.715Z,19.93
2019-06-27T03:29:22.790Z,21.17
2019-06-27T03:31:51.840Z,21.20
2019-06-27T03:34:20.893Z,21.53
2019-06-27T03:36:49.935Z,20.77
2019-06-27T03:39:19.040Z,22.57
2019-06-27T03:41:49.137Z,21.30
2019-06-27T03:44:18.293Z,21.47
2019-06-27T03:46:47.350Z,20.47
2019-06-27T03:49:16.462Z,20.10
2019-06-27T03:51:45.457Z,20.77
2019-06-27T03:54:14.528Z,21.40
2019-06-27T03:56:43.610Z,20.90
2019-06-27T03:59:13.985Z,20.23
2019-06-27T04:01:45.568Z,21.17
2019-06-27T04:04:14.656Z,21.63
2019-06-27T04:06:43.743Z,20.43
2019-06-27T04:09:14.600Z,21.10
2019-06-27T04:11:43.694Z,19.70
2019-06-27T04:14:12.717Z,18.50
2019-06-27T04:16:41.917Z,21.67
2019-06-27T04:19:13.328Z,20.70
2019-06-27T04:21:42.456Z,20.13
2019-06-27T04:24:11.573Z,20.30
2019-06-27T04:26:40.795Z,19.23
2019-06-27T04:29:09.855Z,20.17
2019-06-27T04:31:38.893Z,20.87
2019-06-27T04:34:07.971Z,20.60
2019-06-27T04:36:37.058Z,20.83
2019-06-27T04:39:06.440Z,19.63
2019-06-27T04:41:35.517Z,19.43
2019-06-27T04:44:04.606Z,20.80
2019-06-27T04:46:33.715Z,21.73
2019-06-27T04:49:02.749Z,22.20
2019-06-27T04:51:31.802Z,21.13
2019-06-27T04:54:00.844Z,21.43
2019-06-27T04:56:29.925Z,17.97
2019-06-27T04:58:58.989Z,20.87
2019-06-27T05:01:28.040Z,19.33
2019-06-27T05:03:57.106Z,19.07
2019-06-27T05:06:26.150Z,17.60
2019-06-27T05:08:55.200Z,16.37
2019-06-27T05:11:24.273Z,17.60
2019-06-27T05:13:53.368Z,15.40
2019-06-27T05:16:22.401Z,14.47
2019-06-27T05:18:51.415Z,14.67
2019-06-27T05:21:20.493Z,13.97
2019-06-27T05:23:50.378Z,14.90
2019-06-27T05:26:19.453Z,13.87
2019-06-27T05:28:48.484Z,14.47
2019-06-27T05:31:17.565Z,13.70
2019-06-27T05:33:46.583Z,14.63
2019-06-27T05:36:15.687Z,16.53
2019-06-27T05:38:44.658Z,14.80
2019-06-27T05:41:13.746Z,13.27
2019-06-27T05:43:42.740Z,13.00
2019-06-27T05:46:11.842Z,13.00
2019-06-27T05:48:40.925Z,13.63
2019-06-27T05:51:09.923Z,13.50
2019-06-27T05:53:38.943Z,12.23
2019-06-27T05:56:11.120Z,13.20
2019-06-27T05:58:40.146Z,12.53
2019-06-27T06:01:09.209Z,12.50
2019-06-27T06:03:38.264Z,14.77
2019-06-27T06:06:07.287Z,13.40
2019-06-27T06:08:36.429Z,12.30
2019-06-27T06:11:05.434Z,13.17
2019-06-27T06:13:34.547Z,11.40
2019-06-27T06:16:03.600Z,12.17
2019-06-27T06:18:32.644Z,11.57
2019-06-27T06:21:01.657Z,11.47
2019-06-27T06:23:30.671Z,12.20
2019-06-27T06:25:59.702Z,10.37
2019-06-27T06:28:28.715Z,10.03
2019-06-27T06:30:57.786Z,9.77
2019-06-27T06:33:26.802Z,9.97
2019-06-27T06:35:55.895Z,11.93
2019-06-27T06:38:25.003Z,10.93
2019-06-27T06:40:54.046Z,10.17
2019-06-27T06:43:23.157Z,11.50
2019-06-27T06:45:53.738Z,8.87
2019-06-27T06:48:22.805Z,8.87
2019-06-27T06:50:51.859Z,8.40
2019-06-27T06:53:20.879Z,10.53
2019-06-27T06:55:49.852Z,9.33
2019-06-27T06:58:18.929Z,9.07
2019-06-27T07:01:01.090Z,9.40
2019-06-27T07:03:18.692Z,8.85
2019-06-27T07:05:47.737Z,8.15
2019-06-27T07:08:16.828Z,9.35
2019-06-27T07:10:46.019Z,8.58
2019-06-27T07:13:15.076Z,8.83
2019-06-27T07:15:44.113Z,10.18
2019-06-27T07:18:13.254Z,10.63
2019-06-27T07:20:42.371Z,8.10
2019-06-27T07:23:11.426Z,10.95
2019-06-27T07:25:40.487Z,7.62
2019-06-27T07:28:09.554Z,7.80
2019-06-27T07:30:38.606Z,7.80
2019-06-27T07:33:10.203Z,6.97
2019-06-27T07:35:43.566Z,7.33
2019-06-27T07:38:12.654Z,6.83
2019-06-27T07:40:42.806Z,7.30
2019-06-27T07:43:11.921Z,7.70
2019-06-27T07:45:40.977Z,7.25
2019-06-27T07:48:12.339Z,7.62
2019-06-27T07:50:41.357Z,6.70
2019-06-27T07:53:14.173Z,6.58
2019-06-27T07:55:44.935Z,6.72
2019-06-27T07:58:13.999Z,6.70
2019-06-27T08:00:44.937Z,7.30
2019-06-27T08:03:17.730Z,8.20
2019-06-27T08:05:46.846Z,6.33
2019-06-27T08:08:15.930Z,6.78
2019-06-27T08:10:46.488Z,8.28
2019-06-27T08:13:15.648Z,5.78
2019-06-27T08:15:44.694Z,6.42
2019-06-27T08:18:13.896Z,5.80
2019-06-27T08:20:43.023Z,6.40
2019-06-27T08:23:12.036Z,5.62
2019-06-27T08:25:41.062Z,6.72
2019-06-27T08:28:10.062Z,5.50
2019-06-27T08:30:39.089Z,5.55
2019-06-27T08:33:08.278Z,7.47
2019-06-27T08:35:37.346Z,5.65
2019-06-27T08:38:08.255Z,5.60
2019-06-27T08:40:37.382Z,5.60
2019-06-27T08:43:07.219Z,7.00
2019-06-27T08:45:36.356Z,5.10
2019-06-27T08:48:05.720Z,6.12
2019-06-27T08:50:35.039Z,9.13
2019-06-27T08:53:04.092Z,5.70
2019-06-27T08:58:07.255Z,5.90
2019-06-27T09:00:37.522Z,4.22
2019-06-27T09:03:06.655Z,4.97
2019-06-27T09:05:37.893Z,7.15
2019-06-27T09:08:10.832Z,5.72
2019-06-27T09:10:41.023Z,5.12
2019-06-27T09:13:10.638Z,5.87
2019-06-27T09:15:39.735Z,5.80
2019-06-27T09:18:09.569Z,8.40
2019-06-27T09:20:39.478Z,4.42
2019-06-27T09:23:08.518Z,7.45
2019-06-27T09:25:37.601Z,4.25
2019-06-27T09:28:06.668Z,5.08
2019-06-27T09:30:35.766Z,4.05
2019-06-27T09:33:04.801Z,4.53
2019-06-27T09:35:35.886Z,6.37
2019-06-27T09:38:06.926Z,4.40
2019-06-27T09:40:37.367Z,4.20
2019-06-27T09:43:06.448Z,4.08
2019-06-27T09:45:35.786Z,5.00
2019-06-27T09:48:04.815Z,4.53
2019-06-27T09:50:34.971Z,5.85
2019-06-27T09:53:04.044Z,9.58
2019-06-27T09:55:33.143Z,4.15
2019-06-27T09:58:02.187Z,5.35
2019-06-27T10:00:31.257Z,6.05
2019-06-27T10:03:00.268Z,5.55
2019-06-27T10:05:31.667Z,3.87
2019-06-27T10:08:00.745Z,4.35
2019-06-27T10:10:29.808Z,4.83
2019-06-27T10:12:58.840Z,5.25
2019-06-27T10:15:28.189Z,4.87
2019-06-27T10:17:57.270Z,4.83
2019-06-27T10:20:26.312Z,4.20
2019-06-27T10:22:55.325Z,3.72
2019-06-27T10:25:24.378Z,4.78
2019-06-27T10:27:54.024Z,4.75
2019-06-27T10:30:23.097Z,7.83
2019-06-27T10:32:59.240Z,3.90
2019-06-27T10:35:22.979Z,6.67
2019-06-27T10:37:52.065Z,4.83
2019-06-27T10:40:21.104Z,5.58
2019-06-27T10:42:50.146Z,4.70
2019-06-27T10:45:20.783Z,6.25
2019-06-27T10:47:49.896Z,10.40
2019-06-27T10:50:18.973Z,4.55
2019-06-27T10:52:48.092Z,6.75
2019-06-27T10:55:17.487Z,7.35
2019-06-27T10:57:46.538Z,4.10
2019-06-27T11:00:16.121Z,4.60
2019-06-27T11:02:45.193Z,4.95
2019-06-27T11:05:14.304Z,3.85
2019-06-27T11:07:43.350Z,3.50
2019-06-27T11:10:12.420Z,3.83
2019-06-27T11:12:44.874Z,3.60
2019-06-27T11:15:13.334Z,4.30
2019-06-27T11:17:42.417Z,6.10
2019-06-27T11:20:15.464Z,3.65
2019-06-27T11:22:44.805Z,4.03
2019-06-27T11:25:15.122Z,6.42
2019-06-27T11:27:44.145Z,4.35
2019-06-27T11:30:13.193Z,3.70
2019-06-27T11:32:42.267Z,4.50
2019-06-27T11:35:11.409Z,3.90
2019-06-27T11:37:40.411Z,5.03
2019-06-27T11:40:12.360Z,4.10
2019-06-27T11:42:40.414Z,4.08
2019-06-27T11:45:09.410Z,3.52
2019-06-27T11:47:40.525Z,3.92
2019-06-27T11:50:09.981Z,3.37
2019-06-27T11:52:39.428Z,3.45
2019-06-27T11:55:08.506Z,4.05
2019-06-27T11:57:37.606Z,2.95
2019-06-27T12:00:06.630Z,5.22
2019-06-27T12:02:35.654Z,4.55
2019-06-27T12:05:04.812Z,2.85
2019-06-27T12:07:33.904Z,3.12
2019-06-27T12:10:02.972Z,3.47
2019-06-27T12:12:32.011Z,4.97
2019-06-27T12:15:01.026Z,2.87
2019-06-27T12:17:31.629Z,2.87
2019-06-27T12:20:00.673Z,4.03
2019-06-27T12:22:29.661Z,3.40
2019-06-27T12:24:58.723Z,3.60
2019-06-27T12:27:27.767Z,3.00
2019-06-27T12:29:56.789Z,3.67
2019-06-27T12:32:25.824Z,3.10
2019-06-27T12:34:54.864Z,3.92
2019-06-27T12:37:26.453Z,4.20
2019-06-27T12:39:55.522Z,2.83
2019-06-27T12:42:32.518Z,2.80
2019-06-27T12:45:00.545Z,2.92
2019-06-27T12:47:29.632Z,2.58
2019-06-27T12:50:02.676Z,2.65
2019-06-27T12:52:29.471Z,2.52
2019-06-27T12:55:00.034Z,4.70
2019-06-27T12:57:29.140Z,3.62
2019-06-27T12:59:58.574Z,3.40
2019-06-27T13:02:27.641Z,4.75
2019-06-27T13:04:56.702Z,2.92
2019-06-27T13:07:25.674Z,3.80
2019-06-27T13:09:54.779Z,3.02
2019-06-27T13:12:25.636Z,3.50
2019-06-27T13:14:57.002Z,4.67
2019-06-27T13:17:25.992Z,4.10
2019-06-27T13:19:57.413Z,4.90
2019-06-27T13:22:26.496Z,6.25
2019-06-27T13:24:55.572Z,4.87
2019-06-27T13:27:24.829Z,4.60
2019-06-27T13:29:53.889Z,5.40
2019-06-27T13:32:25.371Z,4.80
2019-06-27T13:34:53.767Z,5.55
2019-06-27T13:37:22.816Z,3.95
2019-06-27T13:39:51.942Z,4.67
2019-06-27T13:42:20.973Z,4.60
2019-06-27T13:44:50.458Z,5.08
2019-06-27T13:47:20.403Z,6.47
2019-06-27T13:49:49.631Z,5.00
2019-06-27T13:52:18.669Z,4.62
2019-06-27T13:54:47.769Z,4.47
2019-06-27T13:57:22.057Z,5.10
2019-06-27T13:59:51.180Z,4.78
2019-06-27T14:02:20.228Z,4.60
2019-06-27T14:04:56.902Z,3.77
2019-06-27T14:07:21.772Z,5.08
2019-06-27T14:09:56.660Z,4.22
2019-06-27T14:12:23.375Z,4.95
2019-06-27T14:14:59.778Z,4.00
2019-06-27T14:17:24.360Z,4.47
2019-06-27T14:19:53.414Z,3.70
2019-06-27T14:22:32.867Z,3.72
2019-06-27T14:24:54.728Z,5.65
2019-06-27T14:27:23.850Z,3.52
2019-06-27T14:29:56.448Z,4.78
2019-06-27T14:32:24.826Z,3.55
2019-06-27T14:34:53.952Z,5.70
2019-06-27T14:37:23.110Z,5.08
2019-06-27T14:39:52.124Z,5.85
2019-06-27T14:42:21.240Z,3.33
2019-06-27T14:44:50.274Z,3.40
2019-06-27T14:47:19.431Z,4.92
2019-06-27T14:49:48.714Z,4.30
2019-06-27T14:52:17.832Z,4.20
2019-06-27T14:54:47.512Z,3.70
2019-06-27T14:57:16.642Z,3.37
2019-06-27T14:59:46.792Z,3.30
2019-06-27T15:02:17.530Z,3.30
2019-06-27T15:04:46.762Z,5.60
2019-06-27T15:07:16.334Z,2.62
2019-06-27T15:09:45.373Z,3.22
2019-06-27T15:12:14.434Z,2.95
2019-06-27T15:14:43.508Z,3.37
2019-06-27T15:17:12.675Z,3.27
2019-06-27T15:19:41.775Z,2.90
2019-06-27T15:22:13.176Z,4.95
2019-06-27T15:24:42.259Z,2.17
2019-06-27T15:27:11.370Z,2.50
2019-06-27T15:29:40.400Z,2.72
2019-06-27T15:32:09.634Z,4.40
2019-06-27T15:34:38.881Z,2.20
2019-06-27T15:37:07.945Z,2.50
2019-06-27T15:39:37.771Z,2.22
2019-06-27T15:42:06.904Z,3.33
2019-06-27T15:44:35.960Z,2.98
2019-06-27T15:47:05.052Z,4.05
2019-06-27T15:49:34.158Z,3.00
2019-06-27T15:52:03.212Z,2.60
2019-06-27T15:54:32.225Z,3.72
2019-06-27T15:57:01.283Z,3.98
2019-06-27T15:59:30.406Z,3.10
2019-06-27T16:01:59.524Z,3.27
2019-06-27T16:04:34.234Z,3.37
2019-06-27T16:07:01.118Z,2.62
2019-06-27T16:09:30.163Z,1.65
2019-06-27T16:11:59.240Z,1.80
2019-06-27T16:14:28.244Z,5.12
2019-06-27T16:16:57.287Z,2.12
2019-06-27T16:19:26.327Z,6.05
2019-06-27T16:21:55.478Z,1.47
2019-06-27T16:24:24.589Z,1.62
2019-06-27T16:26:53.592Z,1.47
2019-06-27T16:29:22.634Z,3.72
2019-06-27T16:31:51.668Z,2.35
2019-06-27T16:34:22.310Z,2.10
2019-06-27T16:36:51.398Z,4.80
2019-06-27T16:39:20.500Z,3.25
2019-06-27T16:41:50.207Z,2.00
2019-06-27T16:44:19.287Z,3.50
2019-06-27T16:46:48.315Z,2.45
2019-06-27T16:49:17.411Z,2.42
2019-06-27T16:51:46.436Z,2.90
2019-06-27T16:54:15.511Z,1.90
2019-06-27T16:56:44.526Z,2.67
2019-06-27T16:59:13.595Z,5.58
2019-06-27T17:01:42.622Z,2.65
2019-06-27T17:04:11.700Z,2.72
2019-06-27T17:06:42.403Z,2.13
2019-06-27T17:09:11.556Z,4.85
2019-06-27T17:11:40.558Z,1.60
2019-06-27T17:14:09.670Z,1.52
2019-06-27T17:16:38.750Z,6.47
2019-06-27T17:19:07.903Z,4.33
2019-06-27T17:21:36.954Z,3.62
2019-06-27T17:24:06.536Z,3.40
2019-06-27T17:26:36.500Z,6.28
2019-06-27T17:29:05.676Z,3.80
2019-06-27T17:31:34.729Z,3.10
2019-06-27T17:34:03.816Z,3.52
2019-06-27T17:36:32.903Z,2.70
2019-06-27T17:39:02.170Z,5.00
2019-06-27T17:41:31.605Z,2.85
2019-06-27T17:44:00.664Z,2.08
2019-06-27T17:46:29.843Z,3.15
2019-06-27T17:49:00.762Z,2.83
2019-06-27T17:51:29.846Z,6.60
2019-06-27T17:53:58.915Z,3.37
2019-06-27T17:56:28.018Z,7.22
2019-06-27T17:58:57.484Z,3.63
2019-06-27T18:01:26.591Z,3.70
2019-06-27T18:03:55.673Z,4.43
2019-06-27T18:06:24.728Z,4.77
2019-06-27T18:08:53.797Z,6.80
2019-06-27T18:11:22.819Z,2.60
2019-06-27T18:13:51.868Z,3.67
2019-06-27T18:16:20.965Z,3.12
2019-06-27T18:18:51.202Z,4.50
2019-06-27T18:21:20.298Z,3.33
2019-06-27T18:23:49.652Z,4.13
2019-06-27T18:26:21.090Z,4.60
2019-06-27T18:28:50.155Z,2.97
2019-06-27T18:31:19.259Z,4.03
2019-06-27T18:33:48.312Z,5.50
2019-06-27T18:36:17.407Z,3.23
2019-06-27T18:38:46.450Z,6.87
2019-06-27T18:41:15.510Z,4.03
2019-06-27T18:43:44.604Z,4.97
2019-06-27T18:46:13.709Z,4.60
2019-06-27T18:48:42.960Z,3.07
2019-06-27T18:51:12.166Z,4.87
2019-06-27T18:53:41.173Z,6.20
2019-06-27T18:56:10.286Z,7.80
2019-06-27T18:58:40.214Z,4.57
2019-06-27T19:01:09.292Z,4.80
2019-06-27T19:03:38.650Z,5.47
2019-06-27T19:06:07.862Z,4.93
2019-06-27T19:08:37.222Z,6.77
2019-06-27T19:11:06.313Z,6.70
2019-06-27T19:13:35.385Z,3.37
2019-06-27T19:16:04.473Z,3.23
2019-06-27T19:18:44.798Z,2.13
2019-06-27T19:21:18.691Z,4.90
2019-06-27T19:24:05.143Z,4.10
2019-06-27T19:26:35.975Z,2.73
2019-06-27T19:29:05.068Z,2.27
2019-06-27T19:31:34.129Z,3.63
2019-06-27T19:34:03.246Z,3.03
2019-06-27T19:36:32.328Z,5.10
2019-06-27T19:39:01.362Z,2.97
2019-06-27T19:41:30.428Z,3.43
2019-06-27T19:43:59.518Z,4.50
2019-06-27T19:46:28.576Z,3.23
2019-06-27T19:48:57.721Z,4.43
2019-06-27T19:51:27.707Z,4.50
2019-06-27T19:53:58.076Z,3.53
2019-06-27T19:56:27.577Z,6.63
2019-06-27T19:58:57.200Z,5.70
2019-06-27T20:01:26.240Z,4.53
2019-06-27T20:03:55.289Z,3.00
2019-06-27T20:06:24.763Z,4.53
2019-06-27T20:08:53.823Z,4.93
2019-06-27T20:11:22.903Z,7.07
2019-06-27T20:13:51.926Z,2.03
2019-06-27T20:16:20.994Z,3.60
2019-06-27T20:18:50.034Z,5.03
2019-06-27T20:21:19.072Z,2.67
2019-06-27T20:23:48.090Z,4.23
2019-06-27T20:26:17.592Z,4.13
2019-06-27T20:28:46.642Z,3.63
2019-06-27T20:31:15.672Z,4.43
2019-06-27T20:33:44.728Z,3.07
2019-06-27T20:36:13.724Z,2.80
2019-06-27T20:38:42.827Z,4.33
2019-06-27T20:41:11.903Z,4.10
2019-06-27T20:43:42.829Z,4.07
2019-06-27T20:46:11.913Z,3.23
2019-06-27T20:48:41.021Z,3.03
2019-06-27T20:51:10.029Z,3.53
2019-06-27T20:53:39.121Z,2.57
2019-06-27T20:56:08.171Z,3.83
2019-06-27T20:58:39.553Z,3.23
2019-06-27T21:01:09.054Z,3.87
2019-06-27T21:03:40.060Z,2.50
2019-06-27T21:06:09.070Z,2.47
2019-06-27T21:08:50.779Z,3.07
2019-06-27T21:11:08.933Z,1.87
2019-06-27T21:13:38.030Z,7.73
2019-06-27T21:16:07.105Z,3.60
2019-06-27T21:18:36.199Z,2.67
2019-06-27T21:21:05.273Z,3.70
2019-06-27T21:23:34.322Z,2.67
2019-06-27T21:26:03.385Z,5.33
2019-06-27T21:28:32.417Z,6.20
2019-06-27T21:31:01.470Z,3.80
2019-06-27T21:33:30.523Z,3.57
2019-06-27T21:35:59.540Z,4.40
2019-06-27T21:38:28.868Z,6.00
2019-06-27T21:40:59.416Z,3.70
2019-06-27T21:43:28.578Z,2.90
2019-06-27T21:45:57.675Z,7.67
2019-06-27T21:48:26.743Z,3.30
2019-06-27T21:50:55.794Z,4.30
2019-06-27T21:53:24.859Z,3.30
2019-06-27T21:55:53.903Z,5.33
2019-06-27T21:58:24.670Z,8.63
2019-06-27T22:00:55.942Z,3.10
2019-06-27T22:03:24.986Z,4.37
2019-06-27T22:05:54.068Z,4.30
2019-06-27T22:08:25.429Z,4.03
2019-06-27T22:10:55.892Z,5.77
2019-06-27T22:13:24.922Z,2.57
2019-06-27T22:15:54.722Z,4.77
2019-06-27T22:18:23.995Z,2.17
2019-06-27T22:20:52.986Z,3.87
2019-06-27T22:23:22.135Z,2.57
2019-06-27T22:25:51.205Z,5.73
2019-06-27T22:28:20.289Z,3.70
2019-06-27T22:30:49.371Z,4.43
2019-06-27T22:33:20.745Z,2.80
2019-06-27T22:35:49.839Z,5.37
2019-06-27T22:38:36.638Z,3.83
2019-06-27T22:41:29.666Z,3.20
2019-06-27T22:44:16.292Z,2.93
2019-06-27T22:47:03.196Z,3.00
2019-06-27T22:49:31.488Z,3.67
2019-06-27T22:52:31.626Z,4.33
2019-06-27T22:55:02.069Z,2.00
2019-06-27T22:57:32.865Z,4.03
2019-06-27T23:00:01.953Z,4.23
2019-06-27T23:02:30.974Z,3.57
2019-06-27T23:05:02.254Z,5.10
2019-06-27T23:07:31.275Z,2.37
2019-06-27T23:10:00.356Z,4.90
2019-06-27T23:12:29.407Z,5.53
2019-06-27T23:14:58.450Z,2.57
2019-06-27T23:17:27.494Z,2.77
2019-06-27T23:19:56.525Z,2.50
2019-06-27T23:22:25.548Z,2.40
2019-06-27T23:24:54.629Z,3.80
2019-06-27T23:27:23.638Z,3.03
2019-06-27T23:29:52.722Z,3.80
2019-06-27T23:32:21.745Z,4.97
2019-06-27T23:34:50.838Z,3.50
2019-06-27T23:37:19.963Z,2.23
2019-06-27T23:39:49.000Z,4.23
2019-06-27T23:42:18.022Z,3.30
2019-06-27T23:44:47.084Z,3.50
2019-06-27T23:47:16.191Z,3.87
2019-06-27T23:49:46.134Z,6.47
2019-06-27T23:52:15.183Z,3.83
2019-06-27T23:54:44.241Z,2.33
2019-06-27T23:57:13.374Z,5.07
2019-06-27T23:59:42.402Z,3.53
